This is the latest recevied weather packets stored in our database for station/object WD4LSS. If no packets are shown the sender has not sent any weather packets the latest 10 day(s).
| Time | Temp. | Humidity | Pressure | Rain* | Wind** | Luminosity | Snow |
|---|---|---|---|---|---|---|---|
| 1777954816 | 15° C | 59% | 1015.2 hPa | 0 mm | - | - | - |
| 1777954216 | 15° C | 59% | 1015.3 hPa | 0 mm | - | - | - |
| 1777951817 | 15.56° C | 56% | 1015.3 hPa | 0 mm | - | - | - |
| 1777951517 | 15.56° C | 56% | 1015.3 hPa | 0 mm | - | - | - |
| 1777946417 | 16.67° C | 58% | 1015 hPa | 0 mm | - | - | - |
| 1777945537 | 17.22° C | 57% | 1015 hPa | 0 mm | - | - | - |
| 1777944017 | 17.78° C | 54% | 1014.7 hPa | 0 mm | - | - | - |
| 1777943716 | 17.78° C | 53% | 1014.6 hPa | 0 mm | - | - | - |
| 1777943417 | 18.33° C | 54% | 1014.6 hPa | 0 mm | - | - | - |
| 1777941616 | 19.44° C | 50% | 1014.1 hPa | 0 mm | - | - | - |
| 1777941037 | 20.56° C | 48% | 1014.1 hPa | 0 mm | - | - | - |
| 1777940716 | 20.56° C | 47% | 1014 hPa | 0 mm | - | - | - |
| 1777938616 | 22.78° C | 42% | 1013.7 hPa | 0 mm | - | - | - |
| 1777937716 | 23.33° C | 39% | 1013.5 hPa | 0 mm | - | - | - |
| 1777936816 | 23.89° C | 38% | 1013.5 hPa | 0 mm | - | - | - |
| 1777935916 | 24.44° C | 37% | 1013.4 hPa | 0 mm | - | - | - |
| 1777935316 | 25° C | 37% | 1013.5 hPa | 0 mm | - | - | - |
| 1777932316 | 25.56° C | 36% | 1013.6 hPa | 0 mm | - | - | - |
| 1777931116 | 26.67° C | 36% | 1013.7 hPa | 0 mm | - | - | - |
| 1777929616 | 26.67° C | 36% | 1013.8 hPa | 0 mm | - | - | - |
| 1777924816 | 26.67° C | 37% | 1014.5 hPa | 0 mm | - | - | - |
| 1777921536 | 26.11° C | 39% | 1015.1 hPa | 0 mm | - | - | - |
| 1777921216 | 26.11° C | 43% | 1015.1 hPa | 0 mm | - | - | - |
| 1777918216 | 25° C | 42% | 1015.5 hPa | 0 mm | - | - | - |
| 1777917016 | 24.44° C | 42% | 1015.8 hPa | 0 mm | - | - | - |
* Rain latest hour (hover to see other rain measurements)
** Current wind speed in m/s (hover to see current wind gust speed)